Time;durP1;ratioP1;P1;durP2;ratioP2;P2;SDS_P1;SDS_P2;PMS_P1;PMS_P2;Temp;Humidity;BMP_temperature;BMP_pressure;BME280_temperature;BME280_humidity;BME280_pressure;Samples;Min_cycle;Max_cycle;Signal;HPM_P1;HPM_P2
2024/03/03 00:01:05;;;;;;;0.30;0.30;;;;;;;9.04;96.88;97747.78;5031478;28;20044;-59
2024/03/03 00:03:33;;;;;;;0.30;0.30;;;;;;;9.03;96.53;97749.63;5032503;28;20100;-57
2024/03/03 00:06:00;;;;;;;0.25;0.25;;;;;;;9.07;96.05;97733.88;5029634;28;20453;-59
2024/03/03 00:08:27;;;;;;;0.20;0.20;;;;;;;9.09;96.24;97733.59;5030564;28;20942;-59
2024/03/03 00:10:54;;;;;;;0.30;0.30;;;;;;;9.01;96.45;97732.25;5033207;28;20664;-57
2024/03/03 00:13:21;;;;;;;0.30;0.30;;;;;;;9.05;96.63;97731.44;5035029;28;20779;-57
2024/03/03 00:15:50;;;;;;;0.30;0.30;;;;;;;8.90;97.09;97720.78;5030059;28;20091;-57
2024/03/03 00:18:17;;;;;;;0.30;0.30;;;;;;;9.02;97.11;97717.84;5036014;28;20139;-56
2024/03/03 00:20:44;;;;;;;0.30;0.30;;;;;;;9.02;97.49;97723.97;5033254;28;20128;-56
2024/03/03 00:23:11;;;;;;;0.30;0.30;;;;;;;8.85;97.87;97724.25;5027938;28;20069;-57
2024/03/03 00:25:38;;;;;;;0.30;0.30;;;;;;;8.72;99.76;97724.00;5035469;28;20061;-58
2024/03/03 00:28:06;;;;;;;0.30;0.30;;;;;;;8.38;100.00;97725.25;5031783;28;20037;-58
2024/03/03 00:30:33;;;;;;;0.30;0.30;;;;;;;8.29;100.00;97726.84;5035175;28;20481;-58
2024/03/03 00:33:01;;;;;;;0.20;0.20;;;;;;;8.23;100.00;97717.22;5028434;28;20402;-59
2024/03/03 00:35:28;;;;;;;0.30;0.30;;;;;;;8.26;100.00;97706.00;5032995;28;20048;-58
2024/03/03 00:37:56;;;;;;;0.20;0.20;;;;;;;8.37;100.00;97702.31;5033420;28;20045;-58
2024/03/03 00:40:24;;;;;;;0.30;0.30;;;;;;;8.20;100.00;97702.53;5045037;28;20104;-58
2024/03/03 00:42:51;;;;;;;0.28;0.28;;;;;;;8.18;100.00;97696.66;5030126;28;20045;-58
2024/03/03 00:45:18;;;;;;;0.30;0.30;;;;;;;8.06;100.00;97696.09;5026936;28;20442;-59
2024/03/03 00:47:45;;;;;;;0.30;0.30;;;;;;;8.06;100.00;97705.97;5033060;28;20472;-58
2024/03/03 00:50:13;;;;;;;0.35;0.35;;;;;;;8.05;100.00;97704.38;5030820;28;20487;-58
2024/03/03 00:52:40;;;;;;;0.30;0.30;;;;;;;7.88;100.00;97694.72;5031625;28;20046;-57
2024/03/03 00:55:09;;;;;;;0.30;0.30;;;;;;;7.94;100.00;97704.34;5029375;28;20187;-57
2024/03/03 00:57:36;;;;;;;0.40;0.40;;;;;;;7.96;100.00;97704.91;5015068;28;20475;-58
2024/03/03 01:00:04;;;;;;;0.30;0.30;;;;;;;7.87;100.00;97705.66;5036082;28;20088;-57
2024/03/03 01:02:31;;;;;;;0.30;0.30;;;;;;;7.96;100.00;97696.88;5033687;28;20048;-58
2024/03/03 01:04:58;;;;;;;0.40;0.40;;;;;;;7.94;100.00;97691.00;5032250;28;20045;-58
2024/03/03 01:07:27;;;;;;;0.30;0.30;;;;;;;7.94;100.00;97677.66;5049396;28;20567;-58
2024/03/03 01:09:54;;;;;;;0.32;0.32;;;;;;;7.79;100.00;97685.63;5036166;28;20048;-57
2024/03/03 01:12:21;;;;;;;0.30;0.30;;;;;;;7.91;100.00;97688.88;5032727;28;20068;-57
2024/03/03 01:14:48;;;;;;;0.30;0.30;;;;;;;7.85;100.00;97683.78;5049875;28;20041;-58
2024/03/03 01:17:15;;;;;;;0.32;0.32;;;;;;;7.86;100.00;97696.03;5035083;28;20140;-58
2024/03/03 01:19:42;;;;;;;0.40;0.40;;;;;;;7.92;100.00;97695.81;5037809;28;20791;-58
2024/03/03 01:22:09;;;;;;;0.30;0.30;;;;;;;7.77;100.00;97695.75;5033474;28;20064;-58
2024/03/03 01:24:38;;;;;;;0.40;0.40;;;;;;;7.87;100.00;97693.13;5034868;28;20099;-58
2024/03/03 01:27:05;;;;;;;0.40;0.40;;;;;;;7.57;100.00;97686.59;5043724;28;20042;-58
2024/03/03 01:29:32;;;;;;;0.38;0.38;;;;;;;7.37;100.00;97681.19;5030871;28;20521;-58
2024/03/03 01:32:03;;;;;;;0.30;0.30;;;;;;;7.31;100.00;97680.38;5034280;28;20124;-58
2024/03/03 01:34:30;;;;;;;0.30;0.30;;;;;;;6.98;100.00;97673.50;5030571;28;20053;-58
2024/03/03 01:36:57;;;;;;;0.40;0.40;;;;;;;6.83;100.00;97673.41;5031994;28;20140;-58
2024/03/03 01:39:24;;;;;;;0.30;0.30;;;;;;;6.41;100.00;97676.81;5035451;28;20128;-58
2024/03/03 01:41:52;;;;;;;0.30;0.30;;;;;;;6.96;100.00;97678.28;5031069;28;20041;-58
2024/03/03 01:44:19;;;;;;;0.40;0.40;;;;;;;7.05;100.00;97676.75;5026883;28;20400;-58
2024/03/03 01:46:46;;;;;;;0.30;0.30;;;;;;;7.00;100.00;97684.72;5039426;28;20041;-57
2024/03/03 01:49:14;;;;;;;0.40;0.40;;;;;;;7.05;100.00;97676.75;5040228;28;20195;-58
2024/03/03 01:51:42;;;;;;;0.40;0.40;;;;;;;7.32;100.00;97670.50;5029679;28;20052;-58
2024/03/03 01:54:11;;;;;;;0.40;0.40;;;;;;;7.44;100.00;97678.25;5035986;28;20045;-59
2024/03/03 01:56:38;;;;;;;0.30;0.30;;;;;;;7.26;100.00;97687.50;5033394;28;20051;-59
2024/03/03 01:59:06;;;;;;;0.30;0.30;;;;;;;6.96;100.00;97696.91;5030389;28;20041;-58
2024/03/03 02:01:33;;;;;;;0.30;0.30;;;;;;;6.67;100.00;97696.47;5035430;28;20038;-59
2024/03/03 02:04:00;;;;;;;0.30;0.30;;;;;;;6.41;100.00;97687.44;5035719;28;20075;-58
2024/03/03 02:06:32;;;;;;;0.38;0.38;;;;;;;6.43;100.00;97688.00;5033263;28;20557;-59
2024/03/03 02:09:00;;;;;;;0.40;0.40;;;;;;;6.36;100.00;97679.41;5051467;28;20127;-59
2024/03/03 02:11:29;;;;;;;0.40;0.40;;;;;;;6.58;100.00;97677.47;5038151;28;20049;-58
2024/03/03 02:13:56;;;;;;;0.40;0.40;;;;;;;6.85;100.00;97684.59;5042936;28;20053;-58
2024/03/03 02:16:24;;;;;;;0.30;0.30;;;;;;;6.99;100.00;97669.78;5038315;28;20056;-59
2024/03/03 02:18:51;;;;;;;0.40;0.40;;;;;;;6.88;100.00;97678.75;5033609;28;20404;-58
2024/03/03 02:21:22;;;;;;;0.40;0.40;;;;;;;6.90;100.00;97676.66;5034425;28;20120;-59
2024/03/03 02:23:49;;;;;;;0.40;0.40;;;;;;;6.71;100.00;97660.25;5035861;28;20597;-58
2024/03/03 02:26:17;;;;;;;0.38;0.38;;;;;;;6.80;100.00;97648.09;5016653;28;20161;-59
2024/03/03 02:28:44;;;;;;;0.30;0.30;;;;;;;7.03;100.00;97630.91;5042342;28;20117;-58
2024/03/03 02:31:11;;;;;;;0.35;0.35;;;;;;;6.94;100.00;97647.63;5031336;28;20047;-58
2024/03/03 02:33:38;;;;;;;0.38;0.38;;;;;;;6.63;100.00;97664.19;5024303;28;20069;-57
2024/03/03 02:36:06;;;;;;;0.40;0.40;;;;;;;6.52;100.00;97683.81;5033189;28;20177;-57
2024/03/03 02:38:34;;;;;;;0.40;0.40;;;;;;;6.39;100.00;97686.88;5033587;28;20061;-57
2024/03/03 02:41:01;;;;;;;0.40;0.40;;;;;;;6.45;100.00;97678.72;5028049;28;20172;-57
2024/03/03 02:43:28;;;;;;;0.40;0.40;;;;;;;6.63;100.00;97680.19;5034177;28;20038;-59
2024/03/03 02:45:55;;;;;;;0.40;0.40;;;;;;;6.94;100.00;97696.41;5030280;28;20458;-59
2024/03/03 02:48:22;;;;;;;0.30;0.30;;;;;;;7.03;100.00;97705.50;5029494;28;20094;-57
2024/03/03 02:50:50;;;;;;;0.40;0.40;;;;;;;7.10;100.00;97700.75;5035681;28;20167;-56
2024/03/03 02:53:16;;;;;;;0.32;0.32;;;;;;;7.03;100.00;97702.03;5026841;28;20050;-59
2024/03/03 02:55:45;;;;;;;0.32;0.32;;;;;;;6.97;100.00;97703.88;5030075;28;20131;-58
2024/03/03 02:58:12;;;;;;;0.40;0.40;;;;;;;6.85;100.00;97703.25;5036930;28;20048;-59
2024/03/03 03:00:39;;;;;;;0.40;0.40;;;;;;;6.69;100.00;97705.00;5035136;28;20061;-59
2024/03/03 03:03:06;;;;;;;0.30;0.30;;;;;;;6.70;100.00;97707.38;5016506;28;20056;-57
2024/03/03 03:05:33;;;;;;;0.40;0.40;;;;;;;6.84;100.00;97717.59;5034936;28;20167;-57
2024/03/03 03:08:00;;;;;;;0.30;0.30;;;;;;;6.91;100.00;97710.19;5034200;28;20041;-57
2024/03/03 03:10:28;;;;;;;0.30;0.30;;;;;;;6.83;100.00;97710.69;5033532;28;20049;-57
2024/03/03 03:12:56;;;;;;;0.40;0.40;;;;;;;6.73;100.00;97710.59;5029637;28;20048;-57
2024/03/03 03:15:23;;;;;;;0.40;0.40;;;;;;;6.64;100.00;97708.41;5042301;28;20045;-57
2024/03/03 03:17:50;;;;;;;0.38;0.38;;;;;;;6.65;100.00;97709.22;5035327;28;20519;-58
2024/03/03 03:20:18;;;;;;;0.40;0.40;;;;;;;6.67;100.00;97707.91;5033328;28;20037;-58
2024/03/03 03:22:47;;;;;;;0.40;0.40;;;;;;;6.91;100.00;97710.19;5038637;28;20045;-59
2024/03/03 03:25:14;;;;;;;0.30;0.30;;;;;;;6.97;100.00;97711.88;5026376;28;20049;-59
2024/03/03 03:27:41;;;;;;;0.50;0.50;;;;;;;6.82;100.00;97714.41;5033738;28;20082;-57
2024/03/03 03:30:11;;;;;;;0.40;0.40;;;;;;;6.28;100.00;97722.47;5029770;28;20123;-56
2024/03/03 03:32:38;;;;;;;0.32;0.32;;;;;;;6.01;100.00;97721.38;5028613;28;20061;-57
2024/03/03 03:35:06;;;;;;;0.30;0.30;;;;;;;5.92;100.00;97716.75;5034165;28;20400;-57
2024/03/03 03:37:33;;;;;;;0.40;0.40;;;;;;;5.63;100.00;97719.56;5023299;28;20123;-57
2024/03/03 03:40:00;;;;;;;0.32;0.32;;;;;;;5.64;100.00;97721.19;5029190;28;20068;-57
2024/03/03 03:42:28;;;;;;;0.47;0.47;;;;;;;5.69;100.00;97723.94;5033583;28;20538;-57
2024/03/03 03:44:55;;;;;;;0.40;0.40;;;;;;;5.81;100.00;97721.91;5044971;28;20140;-57
2024/03/03 03:47:24;;;;;;;0.50;0.50;;;;;;;5.82;100.00;97726.19;5028816;28;20756;-57
2024/03/03 03:49:50;;;;;;;0.30;0.30;;;;;;;5.69;100.00;97723.94;5034236;28;20056;-57
2024/03/03 03:52:18;;;;;;;0.40;0.40;;;;;;;5.66;100.00;97713.75;5035033;28;20079;-58
2024/03/03 03:54:45;;;;;;;0.40;0.40;;;;;;;6.09;100.00;97716.66;5034301;28;20108;-57
2024/03/03 03:57:12;;;;;;;0.32;0.32;;;;;;;6.16;100.00;97702.09;5034426;28;20164;-57
2024/03/03 03:59:39;;;;;;;0.30;0.30;;;;;;;6.33;100.00;97712.66;5036385;28;20037;-57
2024/03/03 04:02:06;;;;;;;0.40;0.40;;;;;;;6.20;100.00;97708.53;5035799;28;20071;-58
2024/03/03 04:04:35;;;;;;;0.40;0.40;;;;;;;6.11;100.00;97710.03;5030666;28;20075;-57
2024/03/03 04:07:04;;;;;;;0.40;0.40;;;;;;;6.11;100.00;97699.41;5042231;28;20037;-58
2024/03/03 04:09:31;;;;;;;0.40;0.40;;;;;;;6.07;100.00;97708.16;5042319;28;20348;-58
2024/03/03 04:11:58;;;;;;;0.30;0.30;;;;;;;6.03;100.00;97703.31;5030680;28;20045;-57
2024/03/03 04:14:25;;;;;;;0.40;0.40;;;;;;;5.99;100.00;97696.91;5033063;28;20148;-58
2024/03/03 04:16:52;;;;;;;0.30;0.30;;;;;;;5.80;100.00;97699.06;5038683;28;20092;-57
2024/03/03 04:19:19;;;;;;;0.35;0.35;;;;;;;5.72;100.00;97704.00;5031247;28;20103;-57
2024/03/03 04:21:49;;;;;;;0.30;0.30;;;;;;;5.88;100.00;97702.31;5044466;28;20043;-57
2024/03/03 04:24:16;;;;;;;0.40;0.40;;;;;;;5.93;100.00;97697.06;5026712;28;20141;-57
2024/03/03 04:26:43;;;;;;;0.40;0.40;;;;;;;5.98;100.00;97705.91;5037650;28;20099;-56
2024/03/03 04:29:10;;;;;;;0.40;0.40;;;;;;;5.91;100.00;97699.16;5042631;28;20133;-55
2024/03/03 04:31:42;;;;;;;0.30;0.30;;;;;;;5.91;100.00;97688.53;5026815;28;20037;-57
2024/03/03 04:34:09;;;;;;;0.30;0.30;;;;;;;5.82;100.00;97686.31;5027725;28;20043;-57
2024/03/03 04:36:36;;;;;;;0.30;0.30;;;;;;;5.39;100.00;97689.78;5034753;28;20502;-57
2024/03/03 04:39:07;;;;;;;0.40;0.40;;;;;;;5.54;100.00;97702.44;5036837;28;20861;-56
2024/03/03 04:41:34;;;;;;;0.30;0.30;;;;;;;5.86;100.00;97683.94;5035685;28;20055;-57
2024/03/03 04:44:01;;;;;;;0.40;0.40;;;;;;;5.68;100.00;97668.34;5037349;28;20136;-57
2024/03/03 04:46:28;;;;;;;0.50;0.50;;;;;;;5.67;100.00;97669.41;5030409;28;20095;-57
2024/03/03 04:48:55;;;;;;;0.40;0.40;;;;;;;5.60;100.00;97674.91;5032338;28;20050;-56
2024/03/03 04:51:22;;;;;;;0.40;0.40;;;;;;;5.75;100.00;97667.09;5029322;28;20041;-57
2024/03/03 04:53:52;;;;;;;0.40;0.40;;;;;;;5.84;100.00;97684.22;5031011;28;20041;-57
2024/03/03 04:56:21;;;;;;;0.40;0.40;;;;;;;5.96;100.00;97701.91;5030468;28;20037;-57
2024/03/03 04:58:48;;;;;;;0.40;0.40;;;;;;;5.88;100.00;97699.66;5034520;28;20045;-56
2024/03/03 05:01:15;;;;;;;0.40;0.40;;;;;;;5.71;100.00;97700.53;5032415;28;20800;-57
2024/03/03 05:03:43;;;;;;;0.30;0.30;;;;;;;5.79;100.00;97700.13;5038233;28;20517;-57
2024/03/03 05:06:10;;;;;;;0.40;0.40;;;;;;;5.88;100.00;97704.97;5026195;28;20743;-57
2024/03/03 05:08:37;;;;;;;0.40;0.40;;;;;;;5.86;100.00;97718.50;5039843;28;22455;-57
2024/03/03 05:11:07;;;;;;;0.50;0.50;;;;;;;5.90;100.00;97724.16;5033515;28;20102;-57
2024/03/03 05:13:36;;;;;;;0.50;0.50;;;;;;;5.96;100.00;97720.53;5034568;28;20059;-58
2024/03/03 05:16:03;;;;;;;0.30;0.30;;;;;;;5.94;100.00;97719.97;5028583;28;20043;-57
2024/03/03 05:18:30;;;;;;;0.43;0.43;;;;;;;5.76;100.00;97718.41;5031916;28;20124;-57
2024/03/03 05:20:57;;;;;;;0.40;0.40;;;;;;;5.51;100.00;97732.19;5034749;28;20052;-57
2024/03/03 05:23:24;;;;;;;0.40;0.40;;;;;;;5.67;100.00;97720.69;5032424;28;20073;-57
2024/03/03 05:25:51;;;;;;;0.40;0.40;;;;;;;5.62;100.00;97715.31;5032605;28;20130;-58
2024/03/03 05:28:19;;;;;;;0.40;0.40;;;;;;;5.54;100.00;97719.22;5028233;28;20488;-57
2024/03/03 05:30:47;;;;;;;0.40;0.40;;;;;;;5.63;100.00;97731.00;5034831;28;20041;-57
2024/03/03 05:33:14;;;;;;;0.38;0.38;;;;;;;5.79;100.00;97720.56;5027190;28;20275;-56
2024/03/03 05:35:41;;;;;;;0.30;0.30;;;;;;;5.73;100.00;97711.72;5034471;28;20151;-57
2024/03/03 05:38:09;;;;;;;0.40;0.40;;;;;;;5.82;100.00;97715.56;5040124;28;20044;-57
2024/03/03 05:40:36;;;;;;;0.40;0.40;;;;;;;5.93;100.00;97708.50;5032154;28;20103;-58
2024/03/03 05:43:03;;;;;;;0.40;0.40;;;;;;;5.91;100.00;97710.59;5038006;28;20668;-58
2024/03/03 05:45:30;;;;;;;0.40;0.40;;;;;;;5.69;100.00;97713.28;5031955;28;20447;-58
2024/03/03 05:47:58;;;;;;;0.32;0.32;;;;;;;5.57;100.00;97709.94;5032719;28;20449;-58
2024/03/03 05:50:25;;;;;;;0.40;0.40;;;;;;;5.28;100.00;97706.63;5042982;28;20453;-58
2024/03/03 05:52:53;;;;;;;0.40;0.40;;;;;;;5.41;100.00;97699.09;5034662;28;20046;-58
2024/03/03 05:55:20;;;;;;;0.40;0.40;;;;;;;5.35;100.00;97692.13;5032482;28;20052;-58
2024/03/03 05:57:47;;;;;;;0.32;0.32;;;;;;;5.15;100.00;97697.97;5030118;28;20049;-58
2024/03/03 06:00:15;;;;;;;0.40;0.40;;;;;;;5.08;100.00;97691.22;5037957;28;20380;-59
2024/03/03 06:02:43;;;;;;;0.38;0.38;;;;;;;5.05;100.00;97691.72;5036865;28;20497;-58
2024/03/03 06:05:11;;;;;;;0.40;0.40;;;;;;;5.39;100.00;97695.09;5031406;28;20706;-58
2024/03/03 06:07:38;;;;;;;0.40;0.40;;;;;;;5.57;100.00;97688.69;5044914;28;20053;-58
2024/03/03 06:10:06;;;;;;;0.35;0.35;;;;;;;5.63;100.00;97690.34;5029903;28;20160;-59
2024/03/03 06:12:34;;;;;;;0.40;0.40;;;;;;;5.51;100.00;97689.66;5042261;28;20037;-57
2024/03/03 06:15:01;;;;;;;0.38;0.38;;;;;;;5.57;100.00;97683.38;5037371;28;20128;-58
2024/03/03 06:17:28;;;;;;;0.50;0.50;;;;;;;5.56;100.00;97679.09;5036708;28;20048;-57
2024/03/03 06:19:55;;;;;;;0.40;0.40;;;;;;;5.70;100.00;97676.88;5032200;28;20128;-57
2024/03/03 06:22:24;;;;;;;0.40;0.40;;;;;;;5.81;100.00;97679.38;5031694;28;20052;-59
2024/03/03 06:24:51;;;;;;;0.40;0.40;;;;;;;5.94;100.00;97682.72;5031202;28;20037;-59
2024/03/03 06:27:18;;;;;;;0.50;0.50;;;;;;;5.99;100.00;97680.13;5036707;28;20131;-58
2024/03/03 06:29:45;;;;;;;0.40;0.40;;;;;;;6.10;100.00;97681.84;5033905;28;20042;-59
2024/03/03 06:32:12;;;;;;;0.40;0.40;;;;;;;5.99;100.00;97691.59;5030920;28;20072;-59
2024/03/03 06:34:39;;;;;;;0.43;0.43;;;;;;;5.83;100.00;97690.56;5026514;28;20050;-59
2024/03/03 06:37:06;;;;;;;0.40;0.40;;;;;;;5.79;100.00;97691.31;5025574;28;20037;-58
2024/03/03 06:39:34;;;;;;;0.50;0.50;;;;;;;5.80;100.00;97703.56;5027071;28;20492;-58
2024/03/03 06:42:02;;;;;;;0.40;0.40;;;;;;;5.71;100.00;97710.38;5027900;28;20155;-59
2024/03/03 06:44:29;;;;;;;0.40;0.40;;;;;;;5.82;100.00;97707.59;5028527;28;20504;-59
2024/03/03 06:46:56;;;;;;;0.40;0.40;;;;;;;5.81;100.00;97716.59;5034260;28;20136;-58
2024/03/03 06:49:23;;;;;;;0.50;0.50;;;;;;;5.53;100.00;97725.56;5041184;28;20049;-59
2024/03/03 06:51:50;;;;;;;0.55;0.55;;;;;;;5.45;100.00;97720.69;5035859;28;20555;-59
2024/03/03 06:54:17;;;;;;;0.40;0.40;;;;;;;5.41;100.00;97720.34;5030935;28;20053;-59
2024/03/03 06:56:46;;;;;;;0.40;0.40;;;;;;;5.72;100.00;97710.13;5031952;28;20526;-57
2024/03/03 06:59:13;;;;;;;0.30;0.30;;;;;;;5.78;100.00;97711.78;5034161;28;20057;-57
2024/03/03 07:01:40;;;;;;;0.50;0.50;;;;;;;5.82;100.00;97714.75;5035277;28;20049;-57
2024/03/03 07:04:19;;;;;;;0.50;0.50;;;;;;;6.17;100.00;97713.59;5039576;28;20201;-58
2024/03/03 07:06:46;;;;;;;0.50;0.50;;;;;;;6.04;100.00;97720.06;5032052;28;20134;-57
2024/03/03 07:09:13;;;;;;;0.30;0.30;;;;;;;6.33;100.00;97720.63;5033051;28;20045;-57
2024/03/03 07:11:40;;;;;;;0.40;0.40;;;;;;;6.43;100.00;97727.91;5033304;28;20045;-57
2024/03/03 07:14:08;;;;;;;0.40;0.40;;;;;;;6.60;100.00;97717.16;5030910;28;20041;-58
2024/03/03 07:16:35;;;;;;;0.32;0.32;;;;;;;6.76;100.00;97720.75;5033267;28;20076;-58
2024/03/03 07:19:03;;;;;;;0.40;0.40;;;;;;;6.61;100.00;97732.06;5032968;28;20143;-58
2024/03/03 07:21:30;;;;;;;0.40;0.40;;;;;;;6.56;100.00;97727.50;5034520;28;20499;-58
2024/03/03 07:23:57;;;;;;;0.40;0.40;;;;;;;6.76;100.00;97728.72;5032594;28;20135;-59
2024/03/03 07:26:24;;;;;;;0.40;0.40;;;;;;;6.63;100.00;97728.09;5027062;28;20072;-59
2024/03/03 07:28:52;;;;;;;0.40;0.40;;;;;;;6.64;100.00;97740.38;5038030;28;20063;-59
2024/03/03 07:31:20;;;;;;;0.30;0.30;;;;;;;7.02;100.00;97743.88;5030449;28;20075;-58
2024/03/03 07:33:47;;;;;;;0.40;0.40;;;;;;;7.74;100.00;97746.97;5034219;28;20036;-58
2024/03/03 07:36:14;;;;;;;0.30;0.30;;;;;;;8.22;100.00;97753.00;5034008;28;20049;-59
2024/03/03 07:38:41;;;;;;;0.30;0.30;;;;;;;8.52;100.00;97759.50;5048432;28;20055;-59
2024/03/03 07:41:08;;;;;;;0.30;0.30;;;;;;;8.38;100.00;97757.28;5036239;28;20072;-59
2024/03/03 07:43:35;;;;;;;0.30;0.30;;;;;;;8.70;100.00;97761.66;5031370;28;20545;-59
2024/03/03 07:46:02;;;;;;;0.30;0.30;;;;;;;8.71;100.00;97768.59;5033343;28;20063;-58
2024/03/03 07:48:31;;;;;;;0.40;0.40;;;;;;;8.71;100.00;97770.44;5039217;28;20075;-59
2024/03/03 07:50:58;;;;;;;0.25;0.25;;;;;;;8.93;100.00;97780.91;5038948;28;20059;-58
2024/03/03 07:53:25;;;;;;;0.30;0.30;;;;;;;8.92;100.00;97784.66;5036341;28;20048;-59
2024/03/03 07:55:52;;;;;;;0.28;0.28;;;;;;;9.14;100.00;97789.72;5026226;28;20041;-58
2024/03/03 07:58:19;;;;;;;0.32;0.32;;;;;;;9.44;100.00;97789.69;5037540;28;20757;-58
2024/03/03 08:00:46;;;;;;;0.30;0.30;;;;;;;9.96;100.00;97795.72;5028799;28;20115;-58
2024/03/03 08:03:14;;;;;;;0.30;0.30;;;;;;;10.35;98.27;97792.38;5027562;28;20124;-59
2024/03/03 08:05:42;;;;;;;0.30;0.30;;;;;;;10.74;94.11;97775.53;5034672;28;20060;-59
2024/03/03 08:08:09;;;;;;;0.40;0.40;;;;;;;10.58;94.05;97770.28;5034778;28;20132;-58
2024/03/03 08:10:38;;;;;;;0.28;0.28;;;;;;;10.67;96.51;97772.38;5030481;28;20487;-58
2024/03/03 08:13:05;;;;;;;0.30;0.30;;;;;;;10.53;95.45;97753.41;5026083;28;20049;-58
2024/03/03 08:15:33;;;;;;;0.25;0.25;;;;;;;11.16;92.82;97752.69;5029269;28;20116;-59
2024/03/03 08:18:00;;;;;;;0.30;0.30;;;;;;;12.08;85.02;97754.38;5037987;28;20135;-59
2024/03/03 08:20:28;;;;;;;0.30;0.30;;;;;;;12.71;81.63;97755.97;5037197;28;20048;-59
2024/03/03 08:22:57;;;;;;;0.28;0.28;;;;;;;13.40;78.29;97756.19;5044650;28;20051;-59
2024/03/03 08:25:24;;;;;;;0.20;0.20;;;;;;;14.18;73.95;97750.94;5040683;28;20072;-59
2024/03/03 08:27:52;;;;;;;0.20;0.20;;;;;;;13.81;72.47;97748.16;5033035;28;20055;-59
2024/03/03 08:30:19;;;;;;;0.20;0.20;;;;;;;14.06;71.95;97754.13;5029099;28;20075;-59
2024/03/03 08:32:47;;;;;;;0.20;0.20;;;;;;;13.77;73.66;97751.75;5033515;28;20128;-58
2024/03/03 08:35:14;;;;;;;0.15;0.15;;;;;;;12.88;75.29;97745.47;5031506;28;20041;-59
2024/03/03 08:37:43;;;;;;;0.10;0.10;;;;;;;13.17;75.35;97742.56;5024190;28;20054;-59
2024/03/03 08:40:12;;;;;;;0.20;0.20;;;;;;;13.01;75.28;97732.38;5043218;28;20048;-59
2024/03/03 08:42:39;;;;;;;0.20;0.20;;;;;;;13.10;74.84;97744.03;5033459;28;20052;-59
2024/03/03 08:45:07;;;;;;;0.20;0.20;;;;;;;13.29;76.28;97746.72;5037490;28;20091;-59
2024/03/03 08:47:34;;;;;;;0.20;0.20;;;;;;;12.67;76.50;97738.81;5034428;28;20094;-58
2024/03/03 08:50:04;;;;;;;0.10;0.10;;;;;;;12.31;78.53;97731.28;5039635;28;20045;-59
2024/03/03 08:52:31;;;;;;;0.20;0.20;;;;;;;12.33;78.33;97731.78;5034088;28;20073;-59
2024/03/03 08:54:58;;;;;;;0.20;0.20;;;;;;;12.86;76.87;97736.13;5030545;28;20037;-59
2024/03/03 08:57:26;;;;;;;0.20;0.20;;;;;;;13.45;74.64;97739.94;5029041;28;20053;-59
2024/03/03 08:59:53;;;;;;;0.20;0.20;;;;;;;13.35;72.16;97729.38;5029496;28;20050;-59
2024/03/03 09:02:21;;;;;;;0.22;0.22;;;;;;;13.31;73.70;97731.09;5037628;28;20855;-58
2024/03/03 09:04:48;;;;;;;0.20;0.20;;;;;;;13.30;73.68;97742.91;5033725;28;20045;-58
2024/03/03 09:07:15;;;;;;;0.20;0.20;;;;;;;13.06;74.63;97743.06;5032002;28;20049;-59
2024/03/03 09:09:42;;;;;;;0.20;0.20;;;;;;;13.80;72.77;97740.38;5027114;28;20045;-59
2024/03/03 09:12:09;;;;;;;0.22;0.22;;;;;;;13.58;71.72;97747.25;5032583;28;20049;-59
2024/03/03 09:14:38;;;;;;;0.25;0.25;;;;;;;13.16;73.18;97743.66;5036640;28;20089;-58
2024/03/03 09:17:05;;;;;;;0.20;0.20;;;;;;;13.09;74.13;97737.06;5032700;28;20502;-59
2024/03/03 09:19:32;;;;;;;0.20;0.20;;;;;;;12.91;73.73;97731.44;5035190;28;20076;-59
2024/03/03 09:21:59;;;;;;;0.20;0.20;;;;;;;13.23;73.46;97742.47;5032884;28;20124;-58
2024/03/03 09:24:26;;;;;;;0.30;0.30;;;;;;;12.12;76.59;97735.84;5040517;28;20037;-58
2024/03/03 09:26:53;;;;;;;0.20;0.20;;;;;;;13.59;72.61;97729.22;5034186;28;20662;-58
2024/03/03 09:29:20;;;;;;;0.20;0.20;;;;;;;12.71;74.60;97721.81;5036462;28;20048;-58
2024/03/03 09:31:49;;;;;;;0.20;0.20;;;;;;;13.36;72.77;97725.59;5036483;28;20045;-58
2024/03/03 09:34:16;;;;;;;0.20;0.20;;;;;;;13.64;72.98;97734.50;5027995;28;20061;-58
2024/03/03 09:36:43;;;;;;;0.20;0.20;;;;;;;13.39;72.45;97725.00;5033252;28;20164;-59
2024/03/03 09:39:10;;;;;;;0.22;0.22;;;;;;;12.88;73.79;97723.16;5028784;28;20523;-59
2024/03/03 09:41:37;;;;;;;0.20;0.20;;;;;;;12.18;77.80;97708.63;5029693;28;20134;-59
2024/03/03 09:44:09;;;;;;;0.20;0.20;;;;;;;11.95;80.44;97694.16;5042557;28;20044;-59
2024/03/03 09:46:37;;;;;;;0.20;0.20;;;;;;;11.47;84.59;97677.28;5027590;28;20866;-59
2024/03/03 09:49:07;;;;;;;0.22;0.22;;;;;;;12.56;79.70;97694.38;5036380;28;20116;-58
2024/03/03 09:51:34;;;;;;;0.22;0.22;;;;;;;13.65;74.33;97689.53;5038144;28;20065;-59
2024/03/03 09:54:01;;;;;;;0.28;0.28;;;;;;;14.07;69.94;97695.66;5039348;28;20056;-59
2024/03/03 09:56:28;;;;;;;0.20;0.20;;;;;;;13.90;70.95;97697.06;5034094;28;20048;-59
2024/03/03 09:58:55;;;;;;;0.20;0.20;;;;;;;14.52;68.56;97698.44;5034714;28;20070;-59
2024/03/03 10:01:22;;;;;;;0.20;0.20;;;;;;;14.13;70.20;97700.66;5030326;28;20041;-59
2024/03/03 10:03:50;;;;;;;0.20;0.20;;;;;;;14.78;65.62;97704.06;5044300;28;20041;-59
2024/03/03 10:06:20;;;;;;;0.10;0.10;;;;;;;15.26;64.58;97693.38;5039607;28;20122;-60
2024/03/03 10:08:47;;;;;;;0.20;0.20;;;;;;;13.99;67.65;97695.28;5040336;28;20055;-59
2024/03/03 10:11:17;;;;;;;0.20;0.20;;;;;;;13.69;69.62;97690.53;5035440;28;20066;-59
2024/03/03 10:13:45;;;;;;;0.10;0.10;;;;;;;12.52;74.60;97692.25;5034273;28;20073;-59
2024/03/03 10:16:12;;;;;;;0.10;0.10;;;;;;;12.49;76.24;97698.22;5029915;28;20657;-59
2024/03/03 10:18:40;;;;;;;0.10;0.10;;;;;;;12.07;79.76;97693.72;5030335;28;20040;-59
2024/03/03 10:21:07;;;;;;;0.20;0.20;;;;;;;12.39;77.43;97697.59;5030157;28;20175;-59
2024/03/03 10:23:36;;;;;;;0.10;0.10;;;;;;;12.11;81.24;97692.06;5032481;28;20136;-59
2024/03/03 10:26:04;;;;;;;0.20;0.20;;;;;;;11.84;80.48;97689.97;5043384;28;20048;-59
2024/03/03 10:28:31;;;;;;;0.20;0.20;;;;;;;11.72;82.06;97682.34;5028450;28;20041;-59
2024/03/03 10:31:11;;;;;;;0.10;0.10;;;;;;;11.24;83.84;97687.72;5033684;28;20057;-59
2024/03/03 10:33:38;;;;;;;0.20;0.20;;;;;;;11.76;84.87;97686.03;5030865;28;20045;-59
2024/03/03 10:36:06;;;;;;;0.10;0.10;;;;;;;12.16;81.94;97686.63;5032253;28;20503;-59
2024/03/03 10:38:33;;;;;;;0.20;0.20;;;;;;;12.27;80.70;97685.38;5035291;28;20979;-59
2024/03/03 10:41:01;;;;;;;0.20;0.20;;;;;;;12.48;79.09;97679.69;5042633;28;20048;-59
2024/03/03 10:43:28;;;;;;;0.20;0.20;;;;;;;12.85;79.97;97672.66;5015307;28;20072;-59
2024/03/03 10:45:55;;;;;;;0.20;0.20;;;;;;;12.23;80.21;97670.94;5036555;28;20048;-59
2024/03/03 10:48:22;;;;;;;0.20;0.20;;;;;;;12.79;78.76;97663.09;5033498;28;20136;-57
2024/03/03 10:50:50;;;;;;;0.20;0.20;;;;;;;12.64;77.51;97674.91;5042427;28;20080;-59
2024/03/03 10:53:17;;;;;;;0.20;0.20;;;;;;;12.86;76.90;97674.28;5034060;28;20571;-59
2024/03/03 10:55:44;;;;;;;0.20;0.20;;;;;;;12.92;78.82;97667.69;5035736;28;20056;-59
2024/03/03 10:58:12;;;;;;;0.20;0.20;;;;;;;12.13;79.33;97663.03;5028037;28;20315;-59
2024/03/03 11:00:39;;;;;;;0.10;0.10;;;;;;;12.59;79.64;97665.03;5033510;28;20244;-57
2024/03/03 11:03:07;;;;;;;0.20;0.20;;;;;;;12.58;79.21;97662.63;5026588;28;20045;-58
2024/03/03 11:05:34;;;;;;;0.20;0.20;;;;;;;12.90;77.57;97659.94;5018418;28;20496;-58
2024/03/03 11:08:01;;;;;;;0.10;0.10;;;;;;;13.85;73.47;97656.78;5033287;28;20134;-58
2024/03/03 11:10:32;;;;;;;0.10;0.10;;;;;;;13.59;73.94;97651.16;5028181;28;20608;-58
2024/03/03 11:12:59;;;;;;;0.10;0.10;;;;;;;13.29;76.40;97650.66;5032563;28;20122;-57
2024/03/03 11:15:27;;;;;;;0.20;0.20;;;;;;;12.97;76.92;97656.84;5030385;28;20054;-58
2024/03/03 11:17:57;;;;;;;0.20;0.20;;;;;;;13.11;78.24;97644.22;5030684;28;20084;-57
2024/03/03 11:20:24;;;;;;;0.10;0.10;;;;;;;13.52;76.02;97645.38;5031398;28;20099;-57
2024/03/03 11:22:58;;;;;;;0.10;0.10;;;;;;;13.38;74.91;97642.69;5029343;28;20161;-57
2024/03/03 11:25:27;;;;;;;0.20;0.20;;;;;;;13.84;71.98;97649.81;5030535;28;20103;-59
2024/03/03 11:27:57;;;;;;;0.13;0.13;;;;;;;13.90;72.16;97647.81;5028307;28;20045;-58
2024/03/03 11:30:23;;;;;;;;;;;;;;;13.21;75.53;97645.94;5033986;28;20065;-57
2024/03/03 11:32:52;;;;;;;0.10;0.10;;;;;;;13.26;75.57;97639.66;5030266;28;19936;-58
2024/03/03 11:35:19;;;;;;;0.10;0.10;;;;;;;13.49;75.62;97641.38;5029729;28;20112;-58